createdAt,value
2018-09-20T00:01:08.507Z,100743.14
2018-09-20T00:03:36.300Z,100738.16
2018-09-20T00:06:04.692Z,100736.80
2018-09-20T00:08:32.596Z,100742.88
2018-09-20T00:11:00.488Z,100742.33
2018-09-20T00:13:28.288Z,100740.64
2018-09-20T00:16:02.068Z,100737.07
2018-09-20T00:18:40.742Z,100736.25
2018-09-20T00:21:09.560Z,100735.70
2018-09-20T00:23:46.591Z,100738.80
2018-09-20T00:26:16.796Z,100736.58
2018-09-20T00:28:45.206Z,100732.72
2018-09-20T00:31:15.632Z,100728.52
2018-09-20T00:33:43.476Z,100729.09
2018-09-20T00:36:11.592Z,100731.05
2018-09-20T00:38:40.316Z,100728.84
2018-09-20T00:41:08.189Z,100724.95
2018-09-20T00:43:36.094Z,100729.41
2018-09-20T00:46:04.808Z,100724.19
2018-09-20T00:48:32.665Z,100723.34
2018-09-20T00:51:00.444Z,100729.42
2018-09-20T00:53:28.284Z,100728.61
2018-09-20T00:55:56.138Z,100725.00
2018-09-20T00:58:24.016Z,100732.48
2018-09-20T01:00:51.864Z,100722.80
2018-09-20T01:03:19.664Z,100727.22
2018-09-20T01:05:47.685Z,100727.77
2018-09-20T01:08:15.495Z,100731.11
2018-09-20T01:10:43.296Z,100734.98
2018-09-20T01:13:11.122Z,100733.04
2018-09-20T01:15:38.897Z,100731.93
2018-09-20T01:18:06.727Z,100738.00
2018-09-20T01:20:34.560Z,100733.04
2018-09-20T01:23:02.371Z,100733.31
2018-09-20T01:25:30.257Z,100730.81
2018-09-20T01:27:58.008Z,100727.76
2018-09-20T01:30:25.824Z,100722.78
2018-09-20T01:32:53.713Z,100731.36
2018-09-20T01:35:21.625Z,100733.02
2018-09-20T01:37:49.372Z,100732.44
2018-09-20T01:40:17.215Z,100737.36
2018-09-20T01:42:45.021Z,100734.61
2018-09-20T01:45:12.788Z,100735.69
2018-09-20T01:47:40.631Z,100729.31
2018-09-20T01:50:08.487Z,100728.25
2018-09-20T01:52:36.296Z,100726.55
2018-09-20T01:55:04.191Z,100733.73
2018-09-20T01:57:31.973Z,100733.72
2018-09-20T01:59:59.744Z,100731.23
2018-09-20T02:02:27.619Z,100729.31
2018-09-20T02:04:55.488Z,100728.73
2018-09-20T02:07:23.272Z,100735.63
2018-09-20T02:09:51.019Z,100732.08
2018-09-20T02:12:18.855Z,100734.28
2018-09-20T02:14:46.633Z,100732.33
2018-09-20T02:17:14.479Z,100732.85
2018-09-20T02:19:42.289Z,100732.28
2018-09-20T02:22:10.067Z,100734.77
2018-09-20T02:24:37.820Z,100731.73
2018-09-20T02:27:05.603Z,100732.86
2018-09-20T02:29:33.356Z,100734.73
2018-09-20T02:32:01.151Z,100740.81
2018-09-20T02:34:31.897Z,100730.02
2018-09-20T02:36:59.851Z,100730.87
2018-09-20T02:39:27.619Z,100730.56
2018-09-20T02:41:55.368Z,100735.53
2018-09-20T02:44:23.220Z,100733.05
2018-09-20T02:46:51.066Z,100733.27
2018-09-20T02:49:18.861Z,100732.19
2018-09-20T02:51:46.646Z,100738.54
2018-09-20T02:54:14.406Z,100734.70
2018-09-20T02:56:42.231Z,100738.58
2018-09-20T02:59:10.199Z,100741.81
2018-09-20T03:01:37.956Z,100736.33
2018-09-20T03:04:05.716Z,100736.92
2018-09-20T03:06:33.566Z,100734.61
2018-09-20T03:09:01.359Z,100726.06
2018-09-20T03:11:29.175Z,100734.33
2018-09-20T03:13:57.220Z,100730.23
2018-09-20T03:16:25.097Z,100733.50
2018-09-20T03:18:52.908Z,100739.85
2018-09-20T03:21:20.744Z,100737.92
2018-09-20T03:23:48.606Z,100742.34
2018-09-20T03:26:16.459Z,100746.78
2018-09-20T03:28:44.516Z,100745.37
2018-09-20T03:31:12.350Z,100739.58
2018-09-20T03:33:40.092Z,100738.48
2018-09-20T03:36:08.009Z,100741.78
2018-09-20T03:38:35.731Z,100742.06
2018-09-20T03:41:03.620Z,100751.20
2018-09-20T03:43:31.372Z,100749.52
2018-09-20T03:45:59.226Z,100739.58
2018-09-20T03:48:27.015Z,100749.52
2018-09-20T03:50:54.836Z,100754.48
2018-09-20T03:53:22.723Z,100752.03
2018-09-20T03:55:50.494Z,100752.86
2018-09-20T03:58:18.479Z,100753.41
2018-09-20T04:00:46.306Z,100758.65
2018-09-20T04:03:14.096Z,100758.92
2018-09-20T04:08:53.429Z,100761.45
2018-09-20T04:11:24.132Z,100760.06
2018-09-20T04:13:52.032Z,100760.62
2018-09-20T04:16:19.907Z,100761.48
2018-09-20T04:18:47.784Z,100752.41
2018-09-20T04:21:21.492Z,100755.69
2018-09-20T04:23:52.886Z,100762.55
2018-09-20T04:26:20.836Z,100764.76
2018-09-20T04:28:48.687Z,100757.52
2018-09-20T04:31:16.518Z,100761.69
2018-09-20T04:33:44.303Z,100763.62
2018-09-20T04:36:12.092Z,100761.92
2018-09-20T04:38:39.935Z,100768.27
2018-09-20T04:41:07.720Z,100767.72
2018-09-20T04:43:35.569Z,100758.61
2018-09-20T04:46:03.424Z,100765.20
2018-09-20T04:48:31.542Z,100775.95
2018-09-20T04:50:59.413Z,100760.00
2018-09-20T04:53:27.460Z,100768.27
2018-09-20T04:55:55.300Z,100773.72
2018-09-20T04:58:23.047Z,100775.09
2018-09-20T05:00:50.911Z,100777.81
2018-09-20T05:03:18.769Z,100780.05
2018-09-20T05:05:46.625Z,100776.15
2018-09-20T05:08:15.106Z,100780.28
2018-09-20T05:10:43.003Z,100778.08
2018-09-20T05:13:10.772Z,100773.03
2018-09-20T05:15:39.128Z,100775.55
2018-09-20T05:18:06.939Z,100770.03
2018-09-20T05:20:34.688Z,100779.73
2018-09-20T05:23:02.545Z,100781.38
2018-09-20T05:25:30.303Z,100775.55
2018-09-20T05:27:58.127Z,100783.00
2018-09-20T05:30:29.900Z,100788.55
2018-09-20T05:32:57.868Z,100781.30
2018-09-20T05:35:25.931Z,100783.31
2018-09-20T05:37:53.713Z,100785.25
2018-09-20T05:40:21.508Z,100782.48
2018-09-20T05:42:49.631Z,100784.70
2018-09-20T05:45:17.424Z,100783.32
2018-09-20T05:47:45.231Z,100780.00
2018-09-20T05:50:13.019Z,100785.80
2018-09-20T05:52:40.916Z,100777.72
2018-09-20T05:55:08.695Z,100785.20
2018-09-20T05:57:37.417Z,100789.39
2018-09-20T06:00:06.473Z,100789.66
2018-09-20T06:02:34.320Z,100785.25
2018-09-20T06:05:02.136Z,100787.45
2018-09-20T06:07:29.991Z,100792.42
2018-09-20T06:09:57.890Z,100794.34
2018-09-20T06:12:25.746Z,100791.05
2018-09-20T06:14:57.570Z,100798.53
2018-09-20T06:17:25.608Z,100800.47
2018-09-20T06:19:54.166Z,100800.42
2018-09-20T06:22:22.160Z,100802.63
2018-09-20T06:24:49.980Z,100803.77
2018-09-20T06:27:17.752Z,100797.70
2018-09-20T06:29:45.600Z,100801.56
2018-09-20T06:32:13.409Z,100810.13
2018-09-20T06:34:41.298Z,100810.11
2018-09-20T06:37:09.092Z,100812.92
2018-09-20T06:39:36.965Z,100815.37
2018-09-20T06:42:04.796Z,100813.75
2018-09-20T06:44:32.583Z,100815.91
2018-09-20T06:47:00.348Z,100814.85
2018-09-20T06:49:28.127Z,100811.55
2018-09-20T06:51:55.979Z,100807.96
2018-09-20T06:54:23.835Z,100806.06
2018-09-20T06:56:51.648Z,100801.94
2018-09-20T06:59:19.510Z,100800.84
2018-09-20T07:01:47.325Z,100806.66
2018-09-20T07:04:15.144Z,100809.19
2018-09-20T07:06:43.016Z,100805.59
2018-09-20T07:09:12.423Z,100809.23
2018-09-20T07:11:40.395Z,100810.33
2018-09-20T07:14:08.351Z,100809.55
2018-09-20T07:16:36.116Z,100812.92
2018-09-20T07:19:04.181Z,100813.23
2018-09-20T07:21:32.303Z,100814.36
2018-09-20T07:24:00.509Z,100823.81
2018-09-20T07:26:28.263Z,100820.52
2018-09-20T07:28:56.100Z,100821.14
2018-09-20T07:31:23.891Z,100827.26
2018-09-20T07:33:51.666Z,100823.14
2018-09-20T07:36:19.496Z,100828.70
2018-09-20T07:38:47.540Z,100825.09
2018-09-20T07:41:15.413Z,100819.59
2018-09-20T07:43:43.257Z,100814.88
2018-09-20T07:46:11.014Z,100814.91
2018-09-20T07:48:38.859Z,100809.61
2018-09-20T07:51:06.813Z,100806.02
2018-09-20T07:53:34.790Z,100810.38
2018-09-20T07:56:02.560Z,100806.20
2018-09-20T07:58:30.371Z,100804.22
2018-09-20T08:00:58.123Z,100798.95
2018-09-20T08:03:26.054Z,100804.93
2018-09-20T08:05:53.905Z,100806.02
2018-09-20T08:08:21.912Z,100808.69
2018-09-20T08:10:49.851Z,100801.41
2018-09-20T08:13:17.720Z,100804.23
2018-09-20T08:15:45.483Z,100797.83
2018-09-20T08:18:13.312Z,100805.79
2018-09-20T08:20:41.172Z,100803.05
2018-09-20T08:23:08.924Z,100801.97
2018-09-20T08:25:36.804Z,100802.87
2018-09-20T08:28:04.643Z,100798.91
2018-09-20T08:30:32.432Z,100791.19
2018-09-20T08:33:00.211Z,100796.89
2018-09-20T08:35:28.022Z,100798.13
2018-09-20T08:37:55.825Z,100796.81
2018-09-20T08:40:23.687Z,100799.13
2018-09-20T08:42:51.567Z,100798.31
2018-09-20T08:45:19.371Z,100798.34
2018-09-20T08:47:47.235Z,100794.61
2018-09-20T08:50:15.000Z,100789.27
2018-09-20T08:52:42.841Z,100789.29
2018-09-20T08:55:10.683Z,100790.53
2018-09-20T08:57:44.113Z,100790.08
2018-09-20T09:00:12.075Z,100792.52
2018-09-20T09:02:39.848Z,100789.16
2018-09-20T09:05:07.724Z,100789.73
2018-09-20T09:07:35.564Z,100783.34
2018-09-20T09:10:03.453Z,100788.68
2018-09-20T09:12:31.236Z,100787.09
2018-09-20T09:14:59.131Z,100788.42
2018-09-20T09:17:26.956Z,100777.81
2018-09-20T09:19:54.778Z,100782.16
2018-09-20T09:22:22.543Z,100779.26
2018-09-20T09:24:50.419Z,100776.85
2018-09-20T09:27:18.229Z,100774.12
2018-09-20T09:29:46.104Z,100766.59
2018-09-20T09:32:13.867Z,100766.67
2018-09-20T09:34:41.667Z,100765.17
2018-09-20T09:37:09.424Z,100767.90
2018-09-20T09:39:37.292Z,100764.03
2018-09-20T09:42:05.364Z,100761.39
2018-09-20T09:44:33.182Z,100755.19
2018-09-20T09:47:01.009Z,100753.11
2018-09-20T09:49:28.827Z,100742.55
2018-09-20T09:51:56.668Z,100750.55
2018-09-20T09:54:24.603Z,100742.08
2018-09-20T09:56:52.390Z,100747.77
2018-09-20T09:59:20.268Z,100750.61
2018-09-20T10:01:48.138Z,100746.12
2018-09-20T10:04:15.927Z,100740.97
2018-09-20T10:06:43.756Z,100735.22
2018-09-20T10:09:11.832Z,100739.16
2018-09-20T10:11:42.439Z,100731.72
2018-09-20T10:14:10.389Z,100727.91
2018-09-20T10:16:38.219Z,100724.44
2018-09-20T10:19:06.103Z,100712.83
2018-09-20T10:21:33.964Z,100711.25
2018-09-20T10:24:01.786Z,100711.56
2018-09-20T10:26:29.575Z,100706.69
2018-09-20T10:28:57.481Z,100702.04
2018-09-20T10:31:25.393Z,100695.10
2018-09-20T10:33:53.179Z,100699.64
2018-09-20T10:36:21.016Z,100699.16
2018-09-20T10:38:48.939Z,100692.56
2018-09-20T10:41:16.748Z,100684.21
2018-09-20T10:43:44.733Z,100685.30
2018-09-20T10:46:12.580Z,100678.96
2018-09-20T10:48:40.440Z,100685.26
2018-09-20T10:51:08.396Z,100680.44
2018-09-20T10:53:39.642Z,100676.93
2018-09-20T10:56:07.708Z,100672.25
2018-09-20T10:58:35.448Z,100664.80
2018-09-20T11:01:03.343Z,100660.40
2018-09-20T11:03:31.210Z,100660.61
2018-09-20T11:05:59.013Z,100656.76
2018-09-20T11:08:26.815Z,100656.68
2018-09-20T11:10:54.670Z,100653.98
2018-09-20T11:13:22.496Z,100654.56
2018-09-20T11:15:50.371Z,100645.62
2018-09-20T11:18:18.206Z,100645.32
2018-09-20T11:20:46.140Z,100639.20
2018-09-20T11:23:13.927Z,100632.42
2018-09-20T11:25:43.149Z,100623.37
2018-09-20T11:28:14.564Z,100632.16
2018-09-20T11:30:42.391Z,100618.11
2018-09-20T11:33:10.210Z,100610.72
2018-09-20T11:35:38.064Z,100616.19
2018-09-20T11:38:05.940Z,100601.86
2018-09-20T11:40:33.808Z,100594.77
2018-09-20T11:43:01.560Z,100600.15
2018-09-20T11:45:29.367Z,100601.48
2018-09-20T11:47:57.225Z,100596.44
2018-09-20T11:50:25.068Z,100588.30
2018-09-20T11:52:52.826Z,100597.11
2018-09-20T11:55:20.643Z,100581.57
2018-09-20T11:57:51.506Z,100580.13
2018-09-20T12:00:20.256Z,100586.39
2018-09-20T12:02:49.043Z,100573.48
2018-09-20T12:05:16.872Z,100571.67
2018-09-20T12:07:44.772Z,100573.09
2018-09-20T12:10:12.608Z,100564.85
2018-09-20T12:12:40.388Z,100569.68
2018-09-20T12:15:08.229Z,100568.72
2018-09-20T12:17:36.004Z,100562.24
2018-09-20T12:20:03.904Z,100560.77
2018-09-20T12:22:36.246Z,100546.90
2018-09-20T12:25:04.528Z,100547.27
2018-09-20T12:27:33.848Z,100539.97
2018-09-20T12:30:02.212Z,100543.10
2018-09-20T12:32:32.111Z,100535.09
2018-09-20T12:35:00.022Z,100534.89
2018-09-20T12:37:35.617Z,100531.55
2018-09-20T12:40:07.902Z,100517.42
2018-09-20T12:42:35.856Z,100523.27
2018-09-20T12:45:04.326Z,100520.22
2018-09-20T12:47:35.694Z,100517.81
2018-09-20T12:50:03.592Z,100514.67
2018-09-20T12:52:31.438Z,100515.64
2018-09-20T12:55:10.450Z,100507.50
2018-09-20T12:57:42.404Z,100504.90
2018-09-20T13:00:10.363Z,100502.59
2018-09-20T13:02:38.197Z,100512.21
2018-09-20T13:05:06.037Z,100507.76
2018-09-20T13:07:33.833Z,100505.84
2018-09-20T13:10:01.629Z,100500.64
2018-09-20T13:12:29.428Z,100503.58
2018-09-20T13:14:57.286Z,100496.28
2018-09-20T13:17:25.037Z,100493.45
2018-09-20T13:19:52.872Z,100488.38
2018-09-20T13:22:20.669Z,100480.52
2018-09-20T13:24:48.515Z,100482.76
2018-09-20T13:27:16.367Z,100489.92
2018-09-20T13:29:44.182Z,100487.63
2018-09-20T13:32:11.999Z,100487.41
2018-09-20T13:34:39.792Z,100490.08
2018-09-20T13:37:07.679Z,100485.09
2018-09-20T13:39:35.488Z,100480.71
2018-09-20T13:42:03.448Z,100482.87
2018-09-20T13:44:31.268Z,100475.88
2018-09-20T13:46:59.115Z,100479.01
2018-09-20T13:49:26.950Z,100473.67
2018-09-20T13:51:54.807Z,100469.62
2018-09-20T13:54:22.653Z,100465.98
2018-09-20T13:56:50.488Z,100469.20
2018-09-20T13:59:18.296Z,100464.20
2018-09-20T14:01:46.144Z,100463.91
2018-09-20T14:04:14.020Z,100468.09
2018-09-20T14:06:41.985Z,100466.95
2018-09-20T14:09:11.081Z,100460.17
2018-09-20T14:11:39.384Z,100450.53
2018-09-20T14:14:07.372Z,100451.82
2018-09-20T14:16:36.223Z,100447.30
2018-09-20T14:19:04.304Z,100448.78
2018-09-20T14:21:32.130Z,100446.78
2018-09-20T14:23:59.987Z,100440.51
2018-09-20T14:26:29.404Z,100436.27
2018-09-20T14:28:57.324Z,100433.19
2018-09-20T14:31:26.828Z,100430.22
2018-09-20T14:34:06.762Z,100424.73
2018-09-20T14:36:34.680Z,100436.33
2018-09-20T14:39:03.668Z,100423.27
2018-09-20T14:41:31.580Z,100417.32
2018-09-20T14:43:59.598Z,100419.32
2018-09-20T14:46:27.594Z,100415.36
2018-09-20T14:48:55.599Z,100414.43
2018-09-20T14:51:23.587Z,100414.30
2018-09-20T14:53:52.284Z,100413.47
2018-09-20T14:56:20.852Z,100407.77
2018-09-20T14:58:50.822Z,100402.48
2018-09-20T15:01:18.637Z,100410.53
2018-09-20T15:03:47.644Z,100398.78
2018-09-20T15:06:16.264Z,100394.83
2018-09-20T15:08:45.325Z,100393.59
2018-09-20T15:11:15.451Z,100392.92
2018-09-20T15:13:43.560Z,100385.52
2018-09-20T15:16:14.762Z,100382.15
2018-09-20T15:18:43.558Z,100386.37
2018-09-20T15:21:11.596Z,100375.53
2018-09-20T15:23:39.645Z,100382.34
2018-09-20T15:26:07.567Z,100384.34
2018-09-20T15:28:35.815Z,100379.35
2018-09-20T15:31:03.914Z,100377.17
2018-09-20T15:33:31.767Z,100370.69
2018-09-20T15:35:59.955Z,100372.95
2018-09-20T15:38:28.199Z,100368.95
2018-09-20T15:40:56.062Z,100369.66
2018-09-20T15:43:27.835Z,100370.07
2018-09-20T15:45:55.760Z,100373.80
2018-09-20T15:48:23.510Z,100370.89
2018-09-20T15:50:51.283Z,100365.73
2018-09-20T15:53:19.118Z,100366.00
2018-09-20T15:55:47.044Z,100364.41
2018-09-20T15:58:14.911Z,100362.48
2018-09-20T16:00:42.773Z,100357.45
2018-09-20T16:03:12.076Z,100356.93
2018-09-20T16:05:40.016Z,100359.97
2018-09-20T16:08:07.795Z,100355.52
2018-09-20T16:10:35.667Z,100355.37
2018-09-20T16:13:03.456Z,100358.33
2018-09-20T16:15:31.434Z,100360.50
2018-09-20T16:18:05.997Z,100351.02
2018-09-20T16:20:35.325Z,100344.97
2018-09-20T16:23:06.447Z,100341.09
2018-09-20T16:25:34.342Z,100341.15
2018-09-20T16:28:43.119Z,100337.48
2018-09-20T16:31:26.710Z,100333.64
2018-09-20T16:38:31.875Z,100321.94
2018-09-20T16:41:03.610Z,100318.58
2018-09-20T16:43:34.924Z,100314.08
2018-09-20T16:46:03.009Z,100314.77
2018-09-20T16:48:31.194Z,100315.77
2018-09-20T16:50:59.123Z,100313.77
2018-09-20T16:53:27.200Z,100316.00
2018-09-20T16:55:56.740Z,100310.53
2018-09-20T16:58:25.304Z,100302.24
2018-09-20T17:01:00.379Z,100307.39
2018-09-20T17:03:33.615Z,100299.34
2018-09-20T17:06:01.996Z,100301.45
2018-09-20T17:08:29.878Z,100297.23
2018-09-20T17:10:57.772Z,100297.14
2018-09-20T17:13:26.068Z,100304.38
2018-09-20T17:15:54.092Z,100302.16
2018-09-20T17:18:21.914Z,100302.83
2018-09-20T17:20:50.396Z,100308.89
2018-09-20T17:23:18.565Z,100298.84
2018-09-20T17:25:46.344Z,100301.98
2018-09-20T17:28:20.646Z,100305.02
2018-09-20T17:30:48.498Z,100304.18
2018-09-20T17:33:16.390Z,100297.73
2018-09-20T17:35:45.414Z,100296.70
2018-09-20T17:38:16.168Z,100296.56
2018-09-20T17:40:46.864Z,100295.63
2018-09-20T17:43:23.159Z,100298.27
2018-09-20T17:45:52.318Z,100293.41
2018-09-20T17:48:21.111Z,100299.95
2018-09-20T17:50:50.118Z,100296.18
2018-09-20T17:53:19.041Z,100299.84
2018-09-20T17:55:47.981Z,100298.56
2018-09-20T17:58:17.250Z,100297.28
2018-09-20T18:00:46.149Z,100292.84
2018-09-20T18:03:15.296Z,100293.66
2018-09-20T18:05:43.197Z,100294.05
2018-09-20T18:08:11.064Z,100298.50
2018-09-20T18:10:38.904Z,100291.67
2018-09-20T18:13:08.172Z,100292.38
2018-09-20T18:15:36.591Z,100294.89
2018-09-20T18:18:04.694Z,100295.48
2018-09-20T18:20:32.308Z,100294.79
2018-09-20T18:23:00.146Z,100294.37
2018-09-20T18:25:27.985Z,100291.62
2018-09-20T18:27:55.860Z,100294.50
2018-09-20T18:30:23.731Z,100292.54
2018-09-20T18:32:53.541Z,100296.03
2018-09-20T18:35:22.138Z,100296.15
2018-09-20T18:37:51.601Z,100293.89
2018-09-20T18:40:19.414Z,100286.84
2018-09-20T18:42:47.892Z,100286.17
2018-09-20T18:45:15.722Z,100287.24
2018-09-20T18:47:43.588Z,100287.24
2018-09-20T18:50:11.890Z,100285.28
2018-09-20T18:52:39.872Z,100295.54
2018-09-20T18:55:09.770Z,100289.96
2018-09-20T18:57:38.188Z,100288.10
2018-09-20T19:00:07.811Z,100284.45
2018-09-20T19:02:35.792Z,100284.34
2018-09-20T19:05:04.232Z,100283.18
2018-09-20T19:07:32.211Z,100280.52
2018-09-20T19:09:59.991Z,100276.47
2018-09-20T19:12:27.808Z,100277.98
2018-09-20T19:14:55.675Z,100271.47
2018-09-20T19:17:23.763Z,100280.16
2018-09-20T19:19:51.584Z,100276.94
2018-09-20T19:22:19.442Z,100277.24
2018-09-20T19:24:47.416Z,100270.65
2018-09-20T19:27:15.207Z,100266.84
2018-09-20T19:29:43.042Z,100267.00
2018-09-20T19:32:10.869Z,100260.13
2018-09-20T19:34:38.740Z,100256.73
2018-09-20T19:37:06.500Z,100263.94
2018-09-20T19:39:34.374Z,100251.94
2018-09-20T19:42:02.412Z,100253.16
2018-09-20T19:44:30.175Z,100261.28
2018-09-20T19:46:58.216Z,100258.16
2018-09-20T19:49:26.095Z,100259.98
2018-09-20T19:51:54.048Z,100249.36
2018-09-20T19:54:21.782Z,100249.77
2018-09-20T19:56:49.580Z,100245.84
2018-09-20T19:59:17.444Z,100253.28
2018-09-20T20:01:45.268Z,100254.25
2018-09-20T20:04:13.044Z,100245.45
2018-09-20T20:06:40.824Z,100244.13
2018-09-20T20:09:11.245Z,100240.84
2018-09-20T20:11:39.633Z,100241.03
2018-09-20T20:14:07.440Z,100247.01
2018-09-20T20:16:35.243Z,100234.99
2018-09-20T20:19:03.108Z,100242.64
2018-09-20T20:21:30.970Z,100247.33
2018-09-20T20:23:58.816Z,100239.66
2018-09-20T20:26:26.636Z,100232.88
2018-09-20T20:28:54.460Z,100229.91
2018-09-20T20:31:22.257Z,100222.91
2018-09-20T20:33:50.037Z,100224.20
2018-09-20T20:36:17.943Z,100221.99
2018-09-20T20:38:50.496Z,100228.40
2018-09-20T20:41:20.983Z,100224.96
2018-09-20T20:43:49.778Z,100233.94
2018-09-20T20:46:17.548Z,100224.28
2018-09-20T20:48:46.734Z,100218.22
2018-09-20T20:51:15.712Z,100223.22
2018-09-20T20:53:44.292Z,100225.52
2018-09-20T20:56:15.417Z,100220.83
2018-09-20T20:58:46.567Z,100225.70
2018-09-20T21:01:20.751Z,100226.17
2018-09-20T21:03:49.284Z,100220.91
2018-09-20T21:06:18.328Z,100224.55
2018-09-20T21:08:46.915Z,100219.26
2018-09-20T21:11:17.287Z,100210.27
2018-09-20T21:13:45.203Z,100207.76
2018-09-20T21:16:13.032Z,100204.47
2018-09-20T21:18:47.434Z,100206.81
2018-09-20T21:21:15.504Z,100202.39
2018-09-20T21:23:43.361Z,100199.37
2018-09-20T21:26:11.148Z,100196.47
2018-09-20T21:28:38.973Z,100202.67
2018-09-20T21:31:13.372Z,100198.83
2018-09-20T21:33:41.176Z,100203.36
2018-09-20T21:36:08.991Z,100202.05
2018-09-20T21:38:36.767Z,100195.42
2018-09-20T21:41:04.991Z,100191.31
2018-09-20T21:43:34.408Z,100190.39
2018-09-20T21:46:04.433Z,100185.47
2018-09-20T21:48:32.420Z,100183.02
2018-09-20T21:51:00.974Z,100181.12
2018-09-20T21:53:28.707Z,100178.25
2018-09-20T21:55:56.501Z,100182.02
2018-09-20T21:58:24.379Z,100174.63
2018-09-20T22:01:00.376Z,100176.85
2018-09-20T22:03:29.923Z,100174.33
2018-09-20T22:05:58.477Z,100174.95
2018-09-20T22:08:27.755Z,100162.61
2018-09-20T22:10:56.688Z,100159.94
2018-09-20T22:13:25.852Z,100151.39
2018-09-20T22:15:54.405Z,100151.91
2018-09-20T22:18:22.617Z,100148.36
2018-09-20T22:20:51.728Z,100146.41
2018-09-20T22:23:21.191Z,100149.34
2018-09-20T22:25:51.714Z,100149.89
2018-09-20T22:28:21.330Z,100146.27
2018-09-20T22:30:49.660Z,100141.65
2018-09-20T22:33:18.749Z,100138.33
2018-09-20T22:35:46.521Z,100135.15
2018-09-20T22:38:14.322Z,100142.53
2018-09-20T22:40:45.681Z,100135.89
2018-09-20T22:43:17.766Z,100129.88
2018-09-20T22:45:45.644Z,100126.25
2018-09-20T22:48:17.507Z,100123.66
2018-09-20T22:50:45.512Z,100126.39
2018-09-20T22:53:13.492Z,100119.44
2018-09-20T22:55:41.890Z,100119.61
2018-09-20T22:58:09.704Z,100112.18
2018-09-20T23:00:37.614Z,100114.69
2018-09-20T23:03:05.748Z,100113.88
2018-09-20T23:05:33.697Z,100109.11
2018-09-20T23:08:01.582Z,100110.27
2018-09-20T23:10:36.962Z,100114.22
2018-09-20T23:13:05.416Z,100111.57
2018-09-20T23:15:33.264Z,100117.14
2018-09-20T23:18:01.040Z,100111.95
2018-09-20T23:20:28.884Z,100116.70
2018-09-20T23:22:56.712Z,100110.98
2018-09-20T23:25:28.069Z,100102.06
2018-09-20T23:27:57.933Z,100106.16
2018-09-20T23:30:27.028Z,100098.48
2018-09-20T23:32:55.246Z,100100.72
2018-09-20T23:35:23.460Z,100090.53
2018-09-20T23:37:51.265Z,100095.83
2018-09-20T23:40:20.081Z,100095.56
2018-09-20T23:42:54.155Z,100094.55
2018-09-20T23:45:22.294Z,100089.62
2018-09-20T23:47:50.403Z,100091.83
2018-09-20T23:50:23.092Z,100093.20
2018-09-20T23:52:51.008Z,100092.42
2018-09-20T23:55:18.957Z,100092.16
2018-09-20T23:57:48.577Z,100083.88
